Terminal Aerodrome Forecast
Issued by NWS Portland, OR

Home | Current Version | Previous Version | Text Only | Print | Product List | Glossary On
Versions: 1 2 3 4 5 6 7 8 9 10 11 12 13 14 15 16 17 18 19 20 21 22 23 24 25 26 27 28 29
000
FTUS46 KPQR 010520
TAFSLE
TAF
KSLE 010520Z 0106/0206 24007KT P6SM BKN060 BKN120
     FM010700 18004KT P6SM BKN035
     FM011600 17007KT P6SM OVC050
     FM011900 21010KT P6SM BKN050 OVC080
     FM012100 25008KT P6SM VCSH BKN045 OVC080=

USA.gov is the U.S. government's official web portal to all federal, state and local government web resources and services.